This is the latest recevied weather packets stored in our database for station/object OE6PWE-13. If no packets are shown the sender has not sent any weather packets the latest 10 day(s).
| Time | Temp. | Humidity | Pressure | Rain* | Wind** | Luminosity | Snow |
|---|---|---|---|---|---|---|---|
| 1788270311 | 27.22° C | 50% | 1018 hPa | 0 mm | - | - | - |
| 1788269411 | 27.22° C | 49% | 1019 hPa | 0 mm | - | - | - |
| 1788268512 | 28.33° C | 47% | 1019 hPa | 0 mm | - | - | - |
| 1788267611 | 27.78° C | 48% | 1019 hPa | 0 mm | - | - | - |
| 1788266711 | 27.22° C | 51% | 1019 hPa | 0 mm | - | - | - |
| 1788265811 | 27.22° C | 52% | 1019 hPa | 0 mm | - | - | - |
| 1788264911 | 27.22° C | 51% | 1019 hPa | 0 mm | - | - | - |
| 1788264026 | 26.67° C | 55% | 1020 hPa | 0 mm | - | - | - |
| 1788263112 | 26.67° C | 53% | 1020 hPa | 0 mm | - | - | - |
| 1788262219 | 26.11° C | 52% | 1020 hPa | 0 mm | - | - | - |
| 1788261312 | 26.67° C | 51% | 1020 hPa | 0 mm | - | - | - |
| 1788260411 | 26.11° C | 52% | 1020 hPa | 0 mm | - | - | - |
| 1788259512 | 25° C | 57% | 1020 hPa | 0 mm | - | - | - |
| 1788258611 | 25° C | 57% | 1020 hPa | 0 mm | - | - | - |
| 1788257711 | 25.56° C | 53% | 1020 hPa | 0 mm | - | - | - |
| 1788256811 | 25.56° C | 51% | 1020 hPa | 0 mm | - | - | - |
| 1788255912 | 25.56° C | 55% | 1020 hPa | 0 mm | - | - | - |
| 1788255012 | 26.11° C | 58% | 1020 hPa | 0 mm | - | - | - |
| 1788254111 | 25.56° C | 56% | 1020 hPa | 0 mm | - | - | - |
| 1788253211 | 24.44° C | 59% | 1021 hPa | 0 mm | - | - | - |
| 1788252312 | 20° C | 74% | 1021 hPa | 0 mm | - | - | - |
| 1788251412 | 18.33° C | 99% | 1022 hPa | 0 mm | - | - | - |
| 1788250512 | 17.78° C | 99% | 1022 hPa | 0 mm | - | - | - |
| 1788249612 | 17.22° C | 99% | 1022 hPa | 0 mm | - | - | - |
| 1788248712 | 16.67° C | 99% | 1022 hPa | 0 mm | - | - | - |
* Rain latest hour (hover to see other rain measurements)
** Current wind speed in m/s (hover to see current wind gust speed)